Time;durP1;ratioP1;P1;durP2;ratioP2;P2;SDS_P1;SDS_P2;PMS_P1;PMS_P2;Temp;Humidity;BMP_temperature;BMP_pressure;BME280_temperature;BME280_humidity;BME280_pressure;Samples;Min_cycle;Max_cycle;Signal;HPM_P1;HPM_P2
2021/11/08 00:01:05;;;;;;;;;;;;;;;4.97;100.00;99462.41;5151987;27;20062;-86
2021/11/08 00:03:35;;;;;;;7.47;3.45;;;;;;;4.96;100.00;99463.41;5145390;27;19919;-86
2021/11/08 00:06:04;;;;;;;;;;;;;;;4.86;100.00;99473.31;5153836;27;20466;-85
2021/11/08 00:08:34;;;;;;;9.18;2.92;;;;;;;4.64;100.00;99462.81;5157506;27;19951;-86
2021/11/08 00:11:01;;;;;;;12.73;3.67;;;;;;;4.67;100.00;99473.34;5158194;27;20059;-86
2021/11/08 00:13:29;;;;;;;12.00;4.55;;;;;;;4.71;100.00;99464.81;5157964;27;20045;-86
2021/11/08 00:16:07;;;;;;;9.57;4.22;;;;;;;4.65;100.00;99451.91;5157587;27;20047;-86
2021/11/08 00:18:40;;;;;;;8.82;5.05;;;;;;;4.75;100.00;99460.00;5157837;27;20047;-86
2021/11/08 00:21:08;;;;;;;8.10;4.88;;;;;;;4.61;100.00;99445.13;5149485;27;20042;-86
2021/11/08 00:23:36;;;;;;;10.48;4.75;;;;;;;4.73;100.00;99459.31;5156229;27;20078;-86
2021/11/08 00:26:03;;;;;;;7.53;4.40;;;;;;;4.70;100.00;99473.06;5143633;27;20100;-86
2021/11/08 00:28:33;;;;;;;11.35;5.40;;;;;;;4.74;100.00;99467.25;5151204;27;20043;-86
2021/11/08 00:31:04;;;;;;;10.20;5.05;;;;;;;4.48;100.00;99453.44;5156992;27;20046;-86
2021/11/08 00:33:31;;;;;;;7.97;4.85;;;;;;;4.65;100.00;99448.38;5157617;27;20134;-87
2021/11/08 00:36:04;;;;;;;8.30;4.45;;;;;;;4.73;100.00;99467.38;5155874;27;20091;-86
2021/11/08 00:38:32;;;;;;;14.13;4.60;;;;;;;4.62;100.00;99479.09;5147732;27;20096;-87
2021/11/08 00:40:59;;;;;;;7.65;4.40;;;;;;;4.55;100.00;99457.28;5157203;27;20047;-87
2021/11/08 00:43:29;;;;;;;10.82;4.50;;;;;;;4.54;100.00;99460.97;5157496;27;20410;-87
2021/11/08 00:46:00;;;;;;;6.57;4.03;;;;;;;4.43;100.00;99471.84;5156808;27;20482;-87
2021/11/08 00:48:34;;;;;;;8.63;4.72;;;;;;;4.30;100.00;99464.03;5156766;27;20054;-86
2021/11/08 00:51:06;;;;;;;8.70;4.95;;;;;;;4.60;100.00;99481.09;5158636;27;20042;-86
2021/11/08 00:53:37;;;;;;;6.63;4.47;;;;;;;4.42;100.00;99470.97;5149455;27;20042;-87
2021/11/08 00:56:12;;;;;;;7.68;3.95;;;;;;;4.39;100.00;99479.34;5157079;27;20500;-86
2021/11/08 00:58:44;;;;;;;6.78;3.95;;;;;;;4.21;100.00;99456.78;5156571;27;20039;-86
2021/11/08 01:01:18;;;;;;;9.93;4.20;;;;;;;4.11;100.00;99463.94;5157137;27;20051;-86
2021/11/08 01:03:46;;;;;;;9.48;4.60;;;;;;;4.19;100.00;99481.13;5157049;27;20101;-86
2021/11/08 01:06:16;;;;;;;10.07;4.90;;;;;;;4.18;100.00;99470.50;5156693;27;20038;-86
2021/11/08 01:08:44;;;;;;;7.72;3.92;;;;;;;4.03;100.00;99481.63;5148305;27;20138;-86
2021/11/08 01:11:17;;;;;;;12.68;4.18;;;;;;;3.82;100.00;99451.25;5156023;27;20051;-86
2021/11/08 01:13:46;;;;;;;7.85;3.50;;;;;;;3.86;100.00;99469.66;5157036;27;20096;-86
2021/11/08 01:16:13;;;;;;;7.40;3.78;;;;;;;3.81;100.00;99484.50;5157550;27;20074;-86
2021/11/08 01:18:45;;;;;;;7.28;4.25;;;;;;;3.67;100.00;99473.13;5156183;27;20053;-87
2021/11/08 01:21:12;;;;;;;8.45;4.60;;;;;;;3.76;100.00;99473.28;5155932;27;20142;-86
2021/11/08 01:23:44;;;;;;;11.63;4.20;;;;;;;3.69;100.00;99467.63;5157140;27;20042;-86
2021/11/08 01:26:15;;;;;;;5.65;3.97;;;;;;;3.61;100.00;99462.03;5155891;27;20035;-86
2021/11/08 01:28:45;;;;;;;;;;;;;;;3.65;100.00;99467.00;5153412;27;20512;-86
2021/11/08 01:31:12;;;;;;;;;;;;;;;3.65;100.00;99488.53;5157564;27;20013;-86
2021/11/08 01:33:42;;;;;;;10.40;4.55;;;;;;;3.39;100.00;99480.03;5155985;27;19925;-86
2021/11/08 01:36:13;;;;;;;11.60;4.55;;;;;;;3.48;100.00;99487.28;5156537;27;20054;-86
2021/11/08 01:38:45;;;;;;;15.02;5.30;;;;;;;3.39;100.00;99480.03;5156544;27;20054;-86
2021/11/08 01:41:13;;;;;;;5.97;4.20;;;;;;;3.18;100.00;99477.34;5156460;27;20054;-86
2021/11/08 01:43:42;;;;;;;10.63;4.70;;;;;;;3.08;100.00;99477.25;5155745;27;20043;-86
2021/11/08 01:46:09;;;;;;;12.95;5.32;;;;;;;3.10;100.00;99466.38;5156077;27;20486;-86
2021/11/08 01:48:37;;;;;;;9.88;4.82;;;;;;;2.87;100.00;99474.53;5149234;27;20092;-86
2021/11/08 01:51:04;;;;;;;8.85;4.60;;;;;;;2.90;100.00;99479.63;5155948;27;20054;-86
2021/11/08 01:53:32;;;;;;;12.65;4.75;;;;;;;2.95;100.00;99480.13;5155941;27;20050;-86
2021/11/08 01:56:01;;;;;;;9.35;4.65;;;;;;;2.92;100.00;99490.25;5156400;27;20046;-86
2021/11/08 01:58:30;;;;;;;6.73;4.10;;;;;;;3.00;100.00;99493.16;5137849;27;20507;-86
2021/11/08 02:00:58;;;;;;;10.10;4.53;;;;;;;2.92;100.00;99504.56;5155234;27;20323;-85
2021/11/08 02:03:26;;;;;;;8.43;4.30;;;;;;;2.76;100.00;99496.06;5155704;27;20054;-86
2021/11/08 02:05:53;;;;;;;7.88;4.18;;;;;;;2.78;100.00;99494.94;5156050;27;20478;-87
2021/11/08 02:08:22;;;;;;;7.22;4.40;;;;;;;2.78;100.00;99500.31;5156203;27;20391;-86
2021/11/08 02:10:51;;;;;;;7.95;5.00;;;;;;;2.72;100.00;99484.69;5155934;27;20046;-86
2021/11/08 02:13:19;;;;;;;9.60;4.53;;;;;;;2.76;100.00;99512.16;5155601;27;20038;-85
2021/11/08 02:15:46;;;;;;;15.25;4.88;;;;;;;2.62;100.00;99503.41;5156036;27;20091;-85
2021/11/08 02:18:13;;;;;;;9.18;4.95;;;;;;;2.56;100.00;99495.00;5155364;27;20054;-86
2021/11/08 02:20:46;;;;;;;16.48;4.85;;;;;;;2.59;100.00;99502.78;5144352;27;20096;-86
2021/11/08 02:23:14;;;;;;;7.50;4.25;;;;;;;2.50;100.00;99492.81;5153777;27;20500;-86
2021/11/08 02:25:41;;;;;;;9.57;4.38;;;;;;;2.38;100.00;99498.22;5155825;27;20051;-86
2021/11/08 02:28:10;;;;;;;9.13;4.88;;;;;;;2.35;100.00;99487.72;5155350;27;20057;-86
2021/11/08 02:30:38;;;;;;;7.60;4.57;;;;;;;2.50;100.00;99511.59;5155812;27;20413;-86
2021/11/08 02:33:08;;;;;;;6.50;4.47;;;;;;;2.55;100.00;99515.63;5155287;27;20391;-86
2021/11/08 02:35:36;;;;;;;;;;;;;;;2.53;100.00;99514.03;5152872;27;20053;-86
2021/11/08 02:38:05;;;;;;;8.77;4.30;;;;;;;2.37;100.00;99498.34;5152327;27;19929;-86
2021/11/08 02:40:32;;;;;;;7.23;4.07;;;;;;;2.28;100.00;99498.09;5155171;27;20296;-86
2021/11/08 02:43:03;;;;;;;6.43;4.22;;;;;;;2.30;100.00;99519.44;5155224;27;20050;-86
2021/11/08 02:45:31;;;;;;;17.15;4.28;;;;;;;2.38;100.00;99516.13;5154921;27;20050;-86
2021/11/08 02:47:58;;;;;;;6.65;3.42;;;;;;;2.26;100.00;99500.06;5155578;27;20055;-85
2021/11/08 02:50:28;;;;;;;6.97;4.38;;;;;;;2.33;100.00;99500.41;5154717;27;20047;-85
2021/11/08 02:52:55;;;;;;;;;;;;;;;2.33;100.00;99515.66;5154673;27;20046;-86
2021/11/08 02:55:26;;;;;;;6.53;4.18;;;;;;;2.19;100.00;99495.31;5155426;27;19923;-86
2021/11/08 02:57:55;;;;;;;6.32;3.83;;;;;;;2.23;100.00;99515.53;5154620;27;20050;-85
2021/11/08 03:00:24;;;;;;;5.78;3.88;;;;;;;2.01;100.00;99514.56;5153557;27;20091;-86
2021/11/08 03:02:51;;;;;;;9.68;3.60;;;;;;;2.02;100.00;99520.78;5154425;27;20043;-86
2021/11/08 03:05:28;;;;;;;8.02;4.10;;;;;;;2.09;100.00;99527.38;5154156;27;20058;-86
2021/11/08 03:07:56;;;;;;;4.22;3.33;;;;;;;2.01;100.00;99519.94;5154317;27;20056;-86
2021/11/08 03:10:26;;;;;;;10.63;4.63;;;;;;;2.03;100.00;99531.41;5154036;27;20083;-85
2021/11/08 03:12:56;;;;;;;7.65;4.35;;;;;;;1.94;100.00;99524.94;5154620;27;20054;-86
2021/11/08 03:15:42;;;;;;;6.05;4.15;;;;;;;1.90;100.00;99519.94;5154613;27;20046;-86
2021/11/08 03:18:13;;;;;;;7.45;4.00;;;;;;;1.85;100.00;99524.78;5155006;27;20100;-85
2021/11/08 03:20:40;;;;;;;6.38;4.32;;;;;;;1.83;100.00;99516.03;5154734;27;20538;-85
2021/11/08 03:23:08;;;;;;;8.65;4.75;;;;;;;1.88;100.00;99530.78;5154679;27;20072;-85
2021/11/08 03:25:43;;;;;;;13.27;4.28;;;;;;;1.81;100.00;99528.69;5153929;27;20039;-86
2021/11/08 03:28:12;;;;;;;6.60;4.20;;;;;;;1.71;100.00;99516.00;5154710;27;20053;-85
2021/11/08 03:30:42;;;;;;;9.38;4.18;;;;;;;1.71;100.00;99516.00;5155036;27;20095;-86
2021/11/08 03:33:12;;;;;;;9.13;3.95;;;;;;;1.70;100.00;99533.06;5154449;27;20043;-86
2021/11/08 03:35:39;;;;;;;;;;;;;;;1.66;100.00;99539.63;5160097;27;20035;-86
2021/11/08 03:38:08;;;;;;;14.38;4.55;;;;;;;1.77;100.00;99536.97;5175000;27;19923;-85
2021/11/08 03:40:39;;;;;;;8.68;4.15;;;;;;;1.71;100.00;99529.41;5177448;27;20042;-85
2021/11/08 03:43:10;;;;;;;8.82;4.72;;;;;;;1.56;100.00;99515.38;5166633;27;20071;-86
2021/11/08 03:45:37;;;;;;;13.32;5.03;;;;;;;1.50;100.00;99523.03;5169638;27;20054;-86
2021/11/08 03:48:07;;;;;;;9.48;5.07;;;;;;;1.58;100.00;99534.88;5155294;27;20439;-86
2021/11/08 03:50:34;;;;;;;7.47;4.28;;;;;;;1.56;100.00;99523.41;5154399;27;20135;-86
2021/11/08 03:53:01;;;;;;;10.70;3.70;;;;;;;1.70;100.00;99546.47;5154302;27;20405;-86
2021/11/08 03:55:28;;;;;;;10.25;4.22;;;;;;;1.60;100.00;99540.13;5154576;27;20493;-86
2021/11/08 03:58:06;;;;;;;12.80;5.13;;;;;;;1.61;100.00;99549.84;5154348;27;20378;-86
2021/11/08 04:00:36;;;;;;;13.90;4.80;;;;;;;1.67;100.00;99549.41;5154033;27;20047;-86
2021/11/08 04:03:03;;;;;;;;;;;;;;;1.64;100.00;99554.13;5154687;27;20054;-86
2021/11/08 04:05:34;;;;;;;7.68;4.40;;;;;;;1.63;100.00;99558.63;5153724;27;20430;-86
2021/11/08 04:08:10;;;;;;;10.48;4.60;;;;;;;1.62;100.00;99546.19;5151794;27;20047;-86
2021/11/08 04:10:39;;;;;;;6.90;4.28;;;;;;;1.45;100.00;99539.47;5154338;27;20054;-86
2021/11/08 04:13:08;;;;;;;10.10;4.40;;;;;;;1.53;100.00;99538.88;5140573;27;20050;-86
2021/11/08 04:15:39;;;;;;;11.52;4.72;;;;;;;1.56;100.00;99547.53;5153509;27;20047;-86
2021/11/08 04:18:09;;;;;;;11.13;5.22;;;;;;;1.51;100.00;99564.94;5153925;27;20077;-86
2021/11/08 04:20:36;;;;;;;9.02;4.75;;;;;;;1.58;100.00;99566.16;5154248;27;20557;-86
2021/11/08 04:23:04;;;;;;;9.73;5.25;;;;;;;1.41;100.00;99552.22;5153682;27;20057;-86
2021/11/08 04:25:31;;;;;;;9.45;4.78;;;;;;;1.48;100.00;99576.75;5154184;27;20451;-86
2021/11/08 04:27:58;;;;;;;10.07;4.43;;;;;;;1.53;100.00;99569.19;5153852;27;20039;-85
2021/11/08 04:30:29;;;;;;;8.77;5.60;;;;;;;1.64;100.00;99571.06;5153643;27;20053;-86
2021/11/08 04:33:14;;;;;;;7.63;5.28;;;;;;;1.45;100.00;99562.75;5152779;27;20039;-86
2021/11/08 04:35:46;;;;;;;16.15;5.93;;;;;;;1.48;100.00;99574.06;5153888;27;20043;-86
2021/11/08 04:38:27;;;;;;;11.07;5.25;;;;;;;1.50;100.00;99573.94;5153645;27;20063;-86
2021/11/08 04:41:06;;;;;;;11.32;5.82;;;;;;;1.63;100.00;99580.09;5153560;27;20043;-86
2021/11/08 04:43:48;;;;;;;10.73;4.78;;;;;;;1.70;100.00;99575.09;5153444;27;20068;-87
2021/11/08 04:49:09;;;;;;;16.95;4.97;;;;;;;1.66;100.00;99566.44;5133453;27;20046;-86
2021/11/08 04:51:44;;;;;;;15.90;5.82;;;;;;;1.72;100.00;99582.06;5153001;27;20046;-86
2021/11/08 04:54:19;;;;;;;25.33;6.90;;;;;;;1.69;100.00;99560.84;5155532;27;20074;-86
2021/11/08 05:28:18;;;;;;;26.55;10.23;;;;;;;2.16;100.00;99581.41;5101814;27;20042;-85
2021/11/08 05:30:46;;;;;;;23.30;9.93;;;;;;;2.22;100.00;99584.44;5156013;27;20099;-85
2021/11/08 05:33:14;;;;;;;27.52;9.18;;;;;;;2.33;100.00;99597.00;5155628;27;20106;-85
2021/11/08 05:35:41;;;;;;;22.25;9.77;;;;;;;2.23;100.00;99571.88;5156245;27;20402;-85
2021/11/08 05:38:12;;;;;;;24.08;11.27;;;;;;;2.35;100.00;99589.69;5156162;27;20051;-84
2021/11/08 05:40:39;;;;;;;21.35;10.60;;;;;;;2.37;100.00;99579.69;5152725;27;20049;-85
2021/11/08 05:43:07;;;;;;;28.70;12.02;;;;;;;2.39;100.00;99580.41;5156096;27;20409;-85
2021/11/08 05:45:35;;;;;;;26.95;12.30;;;;;;;2.42;100.00;99580.16;5155912;27;20047;-85
2021/11/08 05:48:05;;;;;;;31.48;12.25;;;;;;;2.33;100.00;99563.94;5155817;27;20047;-85
2021/11/08 05:50:34;;;;;;;42.92;11.80;;;;;;;2.44;100.00;99588.97;5156279;27;20490;-85
2021/11/08 05:53:02;;;;;;;45.08;13.80;;;;;;;2.45;100.00;99577.25;5154557;27;20057;-85
2021/11/08 05:55:36;;;;;;;29.98;11.23;;;;;;;2.51;100.00;99583.94;5155258;27;20051;-85
2021/11/08 05:58:13;;;;;;;40.30;10.88;;;;;;;2.58;100.00;99600.41;5151987;27;20057;-85
2021/11/08 06:50:09;;;;;;;41.67;12.32;;;;;;;3.29;100.00;99632.28;5154570;27;20079;-85
2021/11/08 06:52:38;;;;;;;41.40;13.75;;;;;;;3.33;100.00;99631.88;5154942;27;20177;-85
2021/11/08 06:55:06;;;;;;;45.00;13.80;;;;;;;3.47;100.00;99646.03;5154270;27;20043;-85
2021/11/08 06:57:43;;;;;;;37.83;12.57;;;;;;;3.50;100.00;99640.38;5153936;27;20047;-85
2021/11/08 07:00:13;;;;;;;37.58;14.93;;;;;;;3.54;100.00;99633.78;5155108;27;20103;-85
2021/11/08 07:02:40;;;;;;;35.45;13.68;;;;;;;3.62;100.00;99646.59;5154345;27;20502;-85
2021/11/08 07:05:07;;;;;;;38.67;14.38;;;;;;;3.63;100.00;99634.81;5153849;27;20099;-85
2021/11/08 07:07:34;;;;;;;41.85;15.05;;;;;;;3.70;100.00;99662.91;5152668;27;20078;-84
2021/11/08 07:10:02;;;;;;;31.70;13.63;;;;;;;3.60;100.00;99649.41;5153185;27;20045;-84
2021/11/08 07:12:28;;;;;;;42.53;14.27;;;;;;;3.66;100.00;99648.03;5154153;27;20047;-84
2021/11/08 07:14:55;;;;;;;48.28;16.15;;;;;;;3.80;100.00;99660.31;5154266;27;20042;-84
2021/11/08 07:17:24;;;;;;;46.13;20.48;;;;;;;3.77;100.00;99649.81;5153714;27;20059;-84
2021/11/08 07:19:50;;;;;;;62.15;24.67;;;;;;;3.84;100.00;99661.75;5153550;27;20553;-84
2021/11/08 07:22:17;;;;;;;66.30;24.88;;;;;;;3.96;100.00;99665.22;5154397;27;20102;-83
2021/11/08 07:24:44;;;;;;;45.38;16.85;;;;;;;3.97;100.00;99669.63;5154473;27;20446;-84
2021/11/08 07:27:11;;;;;;;41.25;16.02;;;;;;;4.07;100.00;99675.94;5153654;27;20046;-84
2021/11/08 07:29:38;;;;;;;38.50;13.90;;;;;;;4.05;100.00;99667.13;5151360;27;20042;-84
2021/11/08 07:32:06;;;;;;;29.17;12.73;;;;;;;4.12;100.00;99676.41;5153674;27;20065;-84
2021/11/08 07:34:35;;;;;;;28.70;11.85;;;;;;;4.08;100.00;99667.75;5153988;27;20058;-84
2021/11/08 07:37:04;;;;;;;29.63;13.13;;;;;;;4.20;100.00;99668.53;5154438;27;20042;-84
2021/11/08 07:39:31;;;;;;;40.80;15.77;;;;;;;4.43;100.00;99689.94;5154083;27;20042;-84
2021/11/08 07:41:58;;;;;;;27.23;14.27;;;;;;;4.46;100.00;99688.78;5153991;27;20051;-84
2021/11/08 07:44:25;;;;;;;31.52;13.23;;;;;;;4.36;100.00;99669.91;5150555;27;20046;-84
2021/11/08 07:46:52;;;;;;;37.65;14.32;;;;;;;4.31;100.00;99672.16;5148562;27;20049;-84
2021/11/08 07:49:19;;;;;;;23.45;12.13;;;;;;;4.48;100.00;99690.38;5153721;27;20047;-84
2021/11/08 07:51:49;;;;;;;37.55;14.90;;;;;;;4.49;100.00;99693.94;5153595;27;20091;-84
2021/11/08 07:54:16;;;;;;;29.35;11.77;;;;;;;4.41;100.00;99694.56;5154252;27;20402;-84
2021/11/08 07:56:47;;;;;;;29.38;12.70;;;;;;;4.47;100.00;99686.00;5154012;27;20096;-85
2021/11/08 07:59:14;;;;;;;33.55;13.32;;;;;;;4.55;100.00;99685.31;5153997;27;20042;-84
2021/11/08 08:01:41;;;;;;;23.08;12.85;;;;;;;4.79;100.00;99693.09;5151894;27;20050;-84
2021/11/08 08:04:08;;;;;;;26.90;12.80;;;;;;;4.84;100.00;99688.13;5149965;27;20107;-85
2021/11/08 08:06:35;;;;;;;26.70;11.43;;;;;;;4.88;100.00;99683.34;5153053;27;20043;-84
2021/11/08 08:09:04;;;;;;;27.15;12.13;;;;;;;4.96;100.00;99675.44;5154166;27;20050;-84
2021/11/08 08:11:31;;;;;;;22.27;11.05;;;;;;;5.02;100.00;99690.22;5153886;27;20039;-84
2021/11/08 08:14:02;;;;;;;24.20;13.02;;;;;;;4.89;100.00;99672.44;5147948;27;20066;-86
2021/11/08 08:16:28;;;;;;;;;;;;;;;5.02;100.00;99677.56;5144900;27;20051;-85
2021/11/08 08:18:55;;;;;;;28.33;12.23;;;;;;;4.97;100.00;99680.69;5144121;27;19968;-85
2021/11/08 08:21:23;;;;;;;25.52;12.10;;;;;;;5.12;100.00;99693.78;5152197;27;20060;-85
2021/11/08 08:23:54;;;;;;;23.98;12.25;;;;;;;5.01;100.00;99667.78;5154181;27;20062;-84
2021/11/08 08:26:29;;;;;;;19.67;11.73;;;;;;;5.34;100.00;99683.78;5152183;27;20400;-85
2021/11/08 08:28:59;;;;;;;31.42;12.13;;;;;;;5.42;100.00;99679.38;5157159;27;20049;-85
2021/11/08 08:31:29;;;;;;;26.83;12.15;;;;;;;5.43;100.00;99674.84;5154738;27;20051;-85
2021/11/08 08:33:56;;;;;;;22.92;11.02;;;;;;;5.53;100.00;99680.25;5140094;27;20498;-85
2021/11/08 08:36:23;;;;;;;24.55;11.40;;;;;;;5.66;100.00;99672.72;5154765;27;20085;-84
2021/11/08 08:38:50;;;;;;;29.17;11.90;;;;;;;5.80;100.00;99683.13;5145695;27;20107;-85
2021/11/08 08:41:17;;;;;;;19.15;10.23;;;;;;;5.97;100.00;99673.47;5157750;27;20054;-85
2021/11/08 08:43:46;;;;;;;31.98;12.52;;;;;;;6.05;100.00;99680.00;5156940;27;20103;-85
2021/11/08 08:46:15;;;;;;;19.83;9.40;;;;;;;5.89;100.00;99684.13;5157504;27;20377;-85
2021/11/08 08:48:41;;;;;;;20.63;9.43;;;;;;;5.74;100.00;99680.97;5157798;27;20099;-84
2021/11/08 08:51:09;;;;;;;23.75;10.85;;;;;;;5.88;100.00;99682.41;5152695;27;20051;-84
2021/11/08 08:53:37;;;;;;;24.65;10.35;;;;;;;5.83;100.00;99685.53;5156934;27;20106;-84
2021/11/08 08:56:04;;;;;;;24.67;9.82;;;;;;;5.79;100.00;99684.09;5157549;27;20043;-84
2021/11/08 08:58:31;;;;;;;26.33;10.20;;;;;;;5.70;100.00;99693.03;5155173;27;20050;-84
2021/11/08 09:00:59;;;;;;;35.95;10.50;;;;;;;5.93;100.00;99682.84;5157366;27;20049;-84
2021/11/08 09:03:26;;;;;;;23.75;9.95;;;;;;;5.97;100.00;99692.38;5156491;27;20054;-84
2021/11/08 09:05:53;;;;;;;27.67;10.60;;;;;;;6.05;100.00;99688.94;5157059;27;20103;-84
2021/11/08 09:08:20;;;;;;;21.40;8.88;;;;;;;6.20;100.00;99681.28;5150629;27;20047;-84
2021/11/08 09:10:48;;;;;;;14.93;6.97;;;;;;;6.17;100.00;99671.63;5139550;27;20410;-84
2021/11/08 09:13:15;;;;;;;12.50;6.85;;;;;;;6.29;100.00;99691.22;5154106;27;20043;-84
2021/11/08 09:15:43;;;;;;;16.50;8.00;;;;;;;6.34;100.00;99701.59;5156942;27;20043;-84
2021/11/08 09:18:13;;;;;;;17.42;9.55;;;;;;;6.55;100.00;99693.31;5156716;27;20055;-84
2021/11/08 09:20:43;;;;;;;18.27;8.32;;;;;;;6.40;100.00;99676.72;5157221;27;20046;-84
2021/11/08 09:23:11;;;;;;;19.35;6.57;;;;;;;6.19;100.00;99698.50;5156497;27;20061;-84
2021/11/08 09:25:38;;;;;;;20.58;7.47;;;;;;;6.27;100.00;99695.06;5147498;27;20047;-84
2021/11/08 09:28:06;;;;;;;20.05;8.20;;;;;;;6.38;100.00;99693.06;5145512;27;20039;-84
2021/11/08 09:30:41;;;;;;;17.92;7.40;;;;;;;6.27;100.00;99704.00;5156663;27;20051;-84
2021/11/08 09:33:08;;;;;;;14.57;7.00;;;;;;;6.32;100.00;99703.56;5156064;27;20043;-84
2021/11/08 09:35:38;;;;;;;23.58;7.68;;;;;;;6.29;100.00;99704.72;5151844;27;20047;-83
2021/11/08 09:38:09;;;;;;;19.30;8.50;;;;;;;6.29;100.00;99684.97;5136856;27;20047;-83
2021/11/08 09:40:37;;;;;;;14.23;7.70;;;;;;;6.34;100.00;99686.22;5154240;27;20477;-86
2021/11/08 09:43:08;;;;;;;18.50;7.68;;;;;;;6.44;100.00;99698.88;5149980;27;20050;-83
2021/11/08 09:45:35;;;;;;;18.20;6.43;;;;;;;6.28;100.00;99689.50;5138944;27;20107;-83
2021/11/08 09:48:03;;;;;;;19.17;7.40;;;;;;;6.55;100.00;99706.81;5156517;27;20406;-84
2021/11/08 09:50:32;;;;;;;23.05;7.38;;;;;;;6.58;100.00;99694.84;5155769;27;20463;-83
2021/11/08 09:53:05;;;;;;;17.58;6.85;;;;;;;6.81;100.00;99700.78;5155860;27;20049;-84
2021/11/08 09:55:32;;;;;;;23.17;8.18;;;;;;;7.03;100.00;99705.81;5155836;27;20051;-83
2021/11/08 09:57:59;;;;;;;21.88;7.93;;;;;;;7.21;100.00;99700.44;5150975;27;20043;-84
2021/11/08 10:00:31;;;;;;;18.98;7.30;;;;;;;7.34;100.00;99700.09;5154720;27;20043;-83
2021/11/08 10:03:01;;;;;;;9.40;4.90;;;;;;;7.36;100.00;99702.63;5155232;27;20508;-84
2021/11/08 10:05:39;;;;;;;18.33;5.82;;;;;;;7.29;99.95;99702.41;5155753;27;20050;-84
2021/11/08 10:08:39;;;;;;;18.45;5.28;;;;;;;7.38;100.00;99698.78;5155481;27;20074;-83
2021/11/08 10:11:08;;;;;;;15.85;5.70;;;;;;;7.80;99.88;99713.63;5155850;27;20050;-83
2021/11/08 10:13:38;;;;;;;22.42;7.00;;;;;;;7.77;100.00;99697.69;5151786;27;20039;-84
2021/11/08 10:16:09;;;;;;;22.83;6.65;;;;;;;7.76;99.63;99687.84;5151269;27;20150;-84
2021/11/08 10:18:43;;;;;;;12.73;5.43;;;;;;;7.86;99.56;99691.34;5145358;27;20115;-84
2021/11/08 10:21:12;;;;;;;17.60;5.82;;;;;;;7.88;98.16;99708.28;5145115;27;20054;-83
2021/11/08 10:23:43;;;;;;;15.38;4.82;;;;;;;8.00;98.38;99708.06;5145807;27;20042;-84
2021/11/08 10:26:13;;;;;;;18.75;5.30;;;;;;;7.99;96.22;99699.06;5155104;27;20443;-83
2021/11/08 10:28:41;;;;;;;15.65;5.30;;;;;;;8.09;96.86;99705.25;5154286;27;20383;-84
2021/11/08 10:31:12;;;;;;;18.55;5.03;;;;;;;7.95;96.73;99692.28;5151439;27;20450;-84
2021/11/08 10:33:42;;;;;;;22.25;4.93;;;;;;;8.00;96.32;99698.06;5146020;27;20047;-82
2021/11/08 10:36:10;;;;;;;;;;;;;;;8.07;97.12;99701.88;5148799;27;20051;-84
2021/11/08 10:38:40;;;;;;;20.60;5.25;;;;;;;7.96;97.74;99696.66;5155070;27;19919;-83
2021/11/08 10:41:13;;;;;;;18.02;4.68;;;;;;;7.95;99.29;99695.84;5155216;27;20047;-84
2021/11/08 10:43:43;;;;;;;13.73;5.47;;;;;;;8.02;98.21;99698.75;5154893;27;20058;-83
2021/11/08 10:46:11;;;;;;;;;;;;;;;8.14;96.58;99704.78;5152374;27;20041;-83
2021/11/08 10:48:41;;;;;;;13.88;5.70;;;;;;;8.21;97.29;99705.88;5138315;27;20115;-83
2021/11/08 10:51:11;;;;;;;15.95;5.10;;;;;;;8.18;96.31;99708.06;5140908;27;20051;-83
2021/11/08 10:53:50;;;;;;;20.50;6.20;;;;;;;7.88;98.76;99704.72;5154574;27;20050;-83
2021/11/08 10:56:26;;;;;;;14.70;4.70;;;;;;;8.10;98.12;99704.25;5155041;27;20050;-83
2021/11/08 10:58:55;;;;;;;9.70;4.25;;;;;;;8.20;97.41;99708.72;5154898;27;20058;-83
2021/11/08 11:01:27;;;;;;;9.80;4.45;;;;;;;8.27;96.97;99710.66;5152268;27;20575;-83
2021/11/08 11:03:55;;;;;;;17.60;4.40;;;;;;;8.32;97.17;99691.22;5148938;27;20050;-83
2021/11/08 11:06:35;;;;;;;14.80;4.53;;;;;;;8.30;94.80;99709.50;5154423;27;20099;-84
2021/11/08 11:09:09;;;;;;;19.23;4.10;;;;;;;8.33;94.02;99711.91;5145599;27;20153;-83
2021/11/08 11:11:38;;;;;;;17.80;4.38;;;;;;;8.40;93.97;99714.81;5154814;27;20061;-83
2021/11/08 11:14:07;;;;;;;13.95;3.42;;;;;;;8.52;91.16;99715.44;5154260;27;20125;-83
2021/11/08 11:16:36;;;;;;;16.77;3.72;;;;;;;8.39;90.41;99707.72;5154417;27;20050;-83
2021/11/08 11:19:05;;;;;;;14.80;3.22;;;;;;;8.61;87.82;99712.66;5149339;27;20038;-84
2021/11/08 11:21:32;;;;;;;17.60;2.83;;;;;;;8.55;87.17;99720.53;5148728;27;20091;-84
2021/11/08 11:24:03;;;;;;;14.38;2.97;;;;;;;8.47;87.02;99714.06;5151785;27;20451;-83
2021/11/08 11:26:34;;;;;;;14.35;3.55;;;;;;;8.56;90.71;99720.38;5155220;27;20074;-85
2021/11/08 11:29:03;;;;;;;14.15;5.05;;;;;;;8.54;92.47;99716.16;5155709;27;20043;-84
2021/11/08 11:31:34;;;;;;;19.27;5.07;;;;;;;8.70;92.42;99718.13;5155549;27;20512;-84
2021/11/08 11:34:11;;;;;;;14.35;3.75;;;;;;;8.60;92.91;99696.56;5153349;27;20042;-84
2021/11/08 11:36:38;;;;;;;22.92;5.40;;;;;;;8.71;93.34;99711.69;5149448;27;20442;-83
2021/11/08 11:39:10;;;;;;;15.13;5.05;;;;;;;8.95;92.50;99700.13;5170225;27;20042;-83
2021/11/08 11:41:40;;;;;;;15.40;5.82;;;;;;;8.72;93.29;99692.56;5167524;27;20055;-83
2021/11/08 11:44:10;;;;;;;13.68;5.07;;;;;;;8.62;93.89;99692.66;5161216;27;20060;-84
2021/11/08 11:46:45;;;;;;;;;;;;;;;8.51;94.02;99692.94;5177555;27;20042;-84
2021/11/08 11:49:13;;;;;;;16.13;4.90;;;;;;;8.45;94.74;99683.56;5169455;27;19907;-83
2021/11/08 11:51:43;;;;;;;14.77;5.07;;;;;;;8.58;94.20;99687.72;5153923;27;20045;-84
2021/11/08 11:54:14;;;;;;;18.77;5.70;;;;;;;8.59;93.91;99686.72;5149276;27;20490;-83
2021/11/08 11:56:45;;;;;;;19.20;6.03;;;;;;;8.66;93.21;99671.50;5153138;27;20575;-83
2021/11/08 11:59:15;;;;;;;14.18;4.97;;;;;;;8.61;93.41;99684.69;5147438;27;20405;-84
2021/11/08 12:01:44;;;;;;;14.45;4.65;;;;;;;8.83;92.57;99677.88;5143659;27;20066;-84
2021/11/08 12:04:17;;;;;;;12.63;5.55;;;;;;;8.93;91.95;99670.47;5155927;27;20049;-83
2021/11/08 12:06:46;;;;;;;14.55;5.43;;;;;;;8.82;93.42;99671.63;5145149;27;20129;-84
2021/11/08 12:09:16;;;;;;;13.63;5.43;;;;;;;8.64;94.52;99668.09;5146375;27;20091;-84
2021/11/08 12:11:45;;;;;;;17.88;4.78;;;;;;;8.63;94.83;99655.56;5156215;27;20046;-84
2021/11/08 12:14:18;;;;;;;14.05;6.47;;;;;;;8.68;94.28;99664.06;5142234;27;20091;-84
2021/11/08 12:16:57;;;;;;;13.63;4.93;;;;;;;8.80;94.65;99659.22;5148486;27;20220;-83
2021/11/08 12:19:26;;;;;;;10.43;4.95;;;;;;;8.77;94.07;99654.13;5157397;27;20082;-84
2021/11/08 12:21:55;;;;;;;16.55;5.90;;;;;;;8.70;92.99;99659.31;5157610;27;20086;-84
2021/11/08 12:24:23;;;;;;;14.10;5.38;;;;;;;8.45;93.63;99655.63;5142592;27;20054;-84
2021/11/08 12:27:02;;;;;;;15.57;7.47;;;;;;;8.50;93.47;99642.44;5148283;27;20087;-83
2021/11/08 12:29:31;;;;;;;15.90;4.85;;;;;;;8.49;93.25;99667.81;5157766;27;20465;-83
2021/11/08 12:32:05;;;;;;;16.02;5.65;;;;;;;8.41;95.35;99654.22;5155831;27;20114;-83
2021/11/08 12:34:45;;;;;;;20.45;5.60;;;;;;;8.36;94.80;99664.69;5142227;27;20107;-83
2021/11/08 12:37:12;;;;;;;14.40;5.53;;;;;;;8.46;94.42;99655.47;5152265;27;20091;-83
2021/11/08 12:39:40;;;;;;;17.75;5.72;;;;;;;8.53;93.77;99660.25;5151670;27;20115;-84
2021/11/08 12:42:09;;;;;;;12.23;4.65;;;;;;;8.20;95.60;99646.44;5150393;27;20034;-83
2021/11/08 12:44:40;;;;;;;11.63;4.80;;;;;;;8.11;96.04;99659.06;5153549;27;20478;-84
2021/11/08 12:47:10;;;;;;;15.45;5.32;;;;;;;7.98;96.48;99644.06;5145865;27;20082;-83
2021/11/08 12:49:40;;;;;;;10.48;4.47;;;;;;;8.15;96.29;99642.34;5143344;27;20556;-84
2021/11/08 12:52:13;;;;;;;13.38;5.72;;;;;;;8.43;94.35;99650.34;5147936;27;20482;-84
2021/11/08 12:54:55;;;;;;;14.63;4.63;;;;;;;8.53;91.76;99641.28;5146320;27;20043;-84
2021/11/08 12:57:25;;;;;;;12.18;4.57;;;;;;;8.59;89.97;99648.75;5153648;27;20282;-83
2021/11/08 12:59:56;;;;;;;12.02;4.35;;;;;;;8.56;89.95;99630.97;5153329;27;20099;-84
2021/11/08 13:02:39;;;;;;;13.45;3.70;;;;;;;8.75;89.26;99632.59;5152951;27;20054;-84
2021/11/08 13:05:09;;;;;;;13.60;4.65;;;;;;;8.91;89.37;99652.66;5145020;27;20051;-83
2021/11/08 13:07:38;;;;;;;18.70;5.43;;;;;;;8.92;88.33;99649.78;5150563;27;20054;-83